sensor_id;sensor_type;location;lat;lon;timestamp;P1;durP1;ratioP1;P2;durP2;ratioP2
21634;SDS011;10979;48.306;9.830;2023-03-01T00:02:18;0.50;;;0.50;;
21634;SDS011;10979;48.306;9.830;2023-03-01T00:04:44;0.50;;;0.50;;
21634;SDS011;10979;48.306;9.830;2023-03-01T00:07:10;0.50;;;0.50;;
21634;SDS011;10979;48.306;9.830;2023-03-01T00:09:36;0.50;;;0.50;;
21634;SDS011;10979;48.306;9.830;2023-03-01T00:12:02;0.50;;;0.50;;
21634;SDS011;10979;48.306;9.830;2023-03-01T00:14:28;0.50;;;0.50;;
21634;SDS011;10979;48.306;9.830;2023-03-01T00:16:53;0.50;;;0.50;;
21634;SDS011;10979;48.306;9.830;2023-03-01T00:19:19;0.50;;;0.50;;
21634;SDS011;10979;48.306;9.830;2023-03-01T00:21:46;0.50;;;0.50;;
21634;SDS011;10979;48.306;9.830;2023-03-01T00:24:13;0.50;;;0.50;;
21634;SDS011;10979;48.306;9.830;2023-03-01T00:26:39;0.50;;;0.50;;
21634;SDS011;10979;48.306;9.830;2023-03-01T00:29:04;0.50;;;0.50;;
21634;SDS011;10979;48.306;9.830;2023-03-01T00:31:31;0.50;;;0.50;;
21634;SDS011;10979;48.306;9.830;2023-03-01T00:33:59;0.50;;;0.50;;
21634;SDS011;10979;48.306;9.830;2023-03-01T00:36:28;0.50;;;0.50;;
21634;SDS011;10979;48.306;9.830;2023-03-01T00:38:56;0.50;;;0.50;;
21634;SDS011;10979;48.306;9.830;2023-03-01T00:41:22;0.50;;;0.50;;
21634;SDS011;10979;48.306;9.830;2023-03-01T00:43:48;0.50;;;0.50;;
21634;SDS011;10979;48.306;9.830;2023-03-01T00:46:18;0.50;;;0.50;;
21634;SDS011;10979;48.306;9.830;2023-03-01T00:48:45;0.50;;;0.50;;
21634;SDS011;10979;48.306;9.830;2023-03-01T00:51:12;0.50;;;0.50;;
21634;SDS011;10979;48.306;9.830;2023-03-01T00:53:42;0.50;;;0.50;;
21634;SDS011;10979;48.306;9.830;2023-03-01T00:56:12;0.50;;;0.50;;
21634;SDS011;10979;48.306;9.830;2023-03-01T00:58:39;0.50;;;0.50;;
21634;SDS011;10979;48.306;9.830;2023-03-01T01:01:12;0.50;;;0.50;;
21634;SDS011;10979;48.306;9.830;2023-03-01T01:03:43;0.50;;;0.50;;
21634;SDS011;10979;48.306;9.830;2023-03-01T01:06:17;0.50;;;0.50;;
21634;SDS011;10979;48.306;9.830;2023-03-01T01:09:04;0.50;;;0.50;;
21634;SDS011;10979;48.306;9.830;2023-03-01T01:11:31;0.50;;;0.50;;
21634;SDS011;10979;48.306;9.830;2023-03-01T01:13:57;0.50;;;0.50;;
21634;SDS011;10979;48.306;9.830;2023-03-01T01:16:24;0.50;;;0.50;;
21634;SDS011;10979;48.306;9.830;2023-03-01T01:18:52;0.50;;;0.50;;
21634;SDS011;10979;48.306;9.830;2023-03-01T01:21:19;0.50;;;0.50;;
21634;SDS011;10979;48.306;9.830;2023-03-01T01:23:47;0.50;;;0.50;;
21634;SDS011;10979;48.306;9.830;2023-03-01T01:26:17;0.50;;;0.50;;
21634;SDS011;10979;48.306;9.830;2023-03-01T01:28:52;0.50;;;0.50;;
21634;SDS011;10979;48.306;9.830;2023-03-01T01:31:18;0.50;;;0.50;;
21634;SDS011;10979;48.306;9.830;2023-03-01T01:33:44;0.50;;;0.50;;
21634;SDS011;10979;48.306;9.830;2023-03-01T01:36:10;0.50;;;0.50;;
21634;SDS011;10979;48.306;9.830;2023-03-01T01:38:36;0.50;;;0.50;;
21634;SDS011;10979;48.306;9.830;2023-03-01T01:41:02;0.50;;;0.50;;
21634;SDS011;10979;48.306;9.830;2023-03-01T01:43:36;0.50;;;0.50;;
21634;SDS011;10979;48.306;9.830;2023-03-01T01:48:39;0.50;;;0.50;;
21634;SDS011;10979;48.306;9.830;2023-03-01T01:51:09;0.50;;;0.50;;
21634;SDS011;10979;48.306;9.830;2023-03-01T01:53:38;0.50;;;0.50;;
21634;SDS011;10979;48.306;9.830;2023-03-01T01:56:05;0.40;;;0.40;;
21634;SDS011;10979;48.306;9.830;2023-03-01T01:58:33;0.50;;;0.50;;
21634;SDS011;10979;48.306;9.830;2023-03-01T02:00:59;0.50;;;0.50;;
21634;SDS011;10979;48.306;9.830;2023-03-01T02:03:27;0.50;;;0.50;;
21634;SDS011;10979;48.306;9.830;2023-03-01T02:06:06;0.50;;;0.50;;
21634;SDS011;10979;48.306;9.830;2023-03-01T02:08:46;0.50;;;0.50;;
21634;SDS011;10979;48.306;9.830;2023-03-01T02:11:14;0.50;;;0.50;;
21634;SDS011;10979;48.306;9.830;2023-03-01T02:13:40;0.50;;;0.50;;
21634;SDS011;10979;48.306;9.830;2023-03-01T02:16:10;0.50;;;0.50;;
21634;SDS011;10979;48.306;9.830;2023-03-01T02:18:38;0.50;;;0.50;;
21634;SDS011;10979;48.306;9.830;2023-03-01T02:24:49;0.50;;;0.50;;
21634;SDS011;10979;48.306;9.830;2023-03-01T02:26:55;0.50;;;0.50;;
21634;SDS011;10979;48.306;9.830;2023-03-01T02:29:24;0.50;;;0.50;;
21634;SDS011;10979;48.306;9.830;2023-03-01T02:31:51;0.50;;;0.50;;
21634;SDS011;10979;48.306;9.830;2023-03-01T02:34:22;0.50;;;0.50;;
21634;SDS011;10979;48.306;9.830;2023-03-01T02:39:31;0.50;;;0.50;;
21634;SDS011;10979;48.306;9.830;2023-03-01T02:42:01;0.40;;;0.40;;
21634;SDS011;10979;48.306;9.830;2023-03-01T02:44:28;0.50;;;0.50;;
21634;SDS011;10979;48.306;9.830;2023-03-01T02:46:55;0.50;;;0.50;;
21634;SDS011;10979;48.306;9.830;2023-03-01T02:54:43;0.45;;;0.45;;
21634;SDS011;10979;48.306;9.830;2023-03-01T02:57:13;0.40;;;0.40;;
21634;SDS011;10979;48.306;9.830;2023-03-01T02:59:39;0.50;;;0.50;;
21634;SDS011;10979;48.306;9.830;2023-03-01T03:02:08;0.50;;;0.50;;
21634;SDS011;10979;48.306;9.830;2023-03-01T03:05:05;0.43;;;0.43;;
21634;SDS011;10979;48.306;9.830;2023-03-01T03:07:35;0.50;;;0.50;;
21634;SDS011;10979;48.306;9.830;2023-03-01T03:10:03;0.50;;;0.50;;
21634;SDS011;10979;48.306;9.830;2023-03-01T03:12:31;0.50;;;0.50;;
21634;SDS011;10979;48.306;9.830;2023-03-01T03:14:56;0.50;;;0.50;;
21634;SDS011;10979;48.306;9.830;2023-03-01T03:17:22;0.50;;;0.50;;
21634;SDS011;10979;48.306;9.830;2023-03-01T03:19:48;0.50;;;0.50;;
21634;SDS011;10979;48.306;9.830;2023-03-01T03:22:13;0.47;;;0.47;;
21634;SDS011;10979;48.306;9.830;2023-03-01T03:24:39;0.50;;;0.50;;
21634;SDS011;10979;48.306;9.830;2023-03-01T03:27:05;0.40;;;0.40;;
21634;SDS011;10979;48.306;9.830;2023-03-01T03:29:31;0.50;;;0.50;;
21634;SDS011;10979;48.306;9.830;2023-03-01T03:31:57;0.50;;;0.50;;
21634;SDS011;10979;48.306;9.830;2023-03-01T03:34:23;0.50;;;0.50;;
21634;SDS011;10979;48.306;9.830;2023-03-01T03:36:55;0.45;;;0.45;;
21634;SDS011;10979;48.306;9.830;2023-03-01T03:39:24;0.50;;;0.50;;
21634;SDS011;10979;48.306;9.830;2023-03-01T03:41:53;0.50;;;0.50;;
21634;SDS011;10979;48.306;9.830;2023-03-01T03:44:20;0.50;;;0.50;;
21634;SDS011;10979;48.306;9.830;2023-03-01T03:46:45;0.50;;;0.50;;
21634;SDS011;10979;48.306;9.830;2023-03-01T03:49:11;0.50;;;0.50;;
21634;SDS011;10979;48.306;9.830;2023-03-01T03:51:37;0.45;;;0.45;;
21634;SDS011;10979;48.306;9.830;2023-03-01T03:54:02;0.50;;;0.50;;
21634;SDS011;10979;48.306;9.830;2023-03-01T03:56:28;0.40;;;0.40;;
21634;SDS011;10979;48.306;9.830;2023-03-01T03:58:53;0.50;;;0.50;;
21634;SDS011;10979;48.306;9.830;2023-03-01T04:01:19;0.50;;;0.50;;
21634;SDS011;10979;48.306;9.830;2023-03-01T04:03:45;0.50;;;0.50;;
21634;SDS011;10979;48.306;9.830;2023-03-01T04:06:12;0.50;;;0.50;;
21634;SDS011;10979;48.306;9.830;2023-03-01T04:08:38;0.50;;;0.50;;
21634;SDS011;10979;48.306;9.830;2023-03-01T04:11:04;0.50;;;0.50;;
21634;SDS011;10979;48.306;9.830;2023-03-01T04:13:48;0.50;;;0.50;;
21634;SDS011;10979;48.306;9.830;2023-03-01T04:16:15;0.50;;;0.50;;
21634;SDS011;10979;48.306;9.830;2023-03-01T04:18:42;0.50;;;0.50;;
21634;SDS011;10979;48.306;9.830;2023-03-01T04:21:08;0.50;;;0.50;;
21634;SDS011;10979;48.306;9.830;2023-03-01T04:23:33;0.50;;;0.50;;
21634;SDS011;10979;48.306;9.830;2023-03-01T04:26:00;0.50;;;0.50;;
21634;SDS011;10979;48.306;9.830;2023-03-01T04:30:54;0.50;;;0.50;;
21634;SDS011;10979;48.306;9.830;2023-03-01T04:33:21;0.50;;;0.50;;
21634;SDS011;10979;48.306;9.830;2023-03-01T04:35:47;0.50;;;0.50;;
21634;SDS011;10979;48.306;9.830;2023-03-01T04:38:16;0.40;;;0.40;;
21634;SDS011;10979;48.306;9.830;2023-03-01T04:40:43;0.50;;;0.50;;
21634;SDS011;10979;48.306;9.830;2023-03-01T04:43:09;0.50;;;0.50;;
21634;SDS011;10979;48.306;9.830;2023-03-01T04:45:36;0.50;;;0.50;;
21634;SDS011;10979;48.306;9.830;2023-03-01T04:48:02;0.40;;;0.40;;
21634;SDS011;10979;48.306;9.830;2023-03-01T04:50:28;0.50;;;0.50;;
21634;SDS011;10979;48.306;9.830;2023-03-01T04:52:54;0.50;;;0.50;;
21634;SDS011;10979;48.306;9.830;2023-03-01T04:55:23;0.50;;;0.50;;
21634;SDS011;10979;48.306;9.830;2023-03-01T04:57:50;0.50;;;0.50;;
21634;SDS011;10979;48.306;9.830;2023-03-01T05:00:16;0.50;;;0.50;;
21634;SDS011;10979;48.306;9.830;2023-03-01T05:02:56;0.40;;;0.40;;
21634;SDS011;10979;48.306;9.830;2023-03-01T05:05:28;0.50;;;0.50;;
21634;SDS011;10979;48.306;9.830;2023-03-01T05:07:58;0.50;;;0.50;;
21634;SDS011;10979;48.306;9.830;2023-03-01T05:10:26;0.50;;;0.50;;
21634;SDS011;10979;48.306;9.830;2023-03-01T05:12:56;0.50;;;0.50;;
21634;SDS011;10979;48.306;9.830;2023-03-01T05:15:23;0.50;;;0.50;;
21634;SDS011;10979;48.306;9.830;2023-03-01T05:17:53;0.50;;;0.50;;
21634;SDS011;10979;48.306;9.830;2023-03-01T05:20:19;0.50;;;0.50;;
21634;SDS011;10979;48.306;9.830;2023-03-01T05:22:49;0.50;;;0.50;;
21634;SDS011;10979;48.306;9.830;2023-03-01T05:25:15;0.50;;;0.50;;
21634;SDS011;10979;48.306;9.830;2023-03-01T05:27:41;0.50;;;0.50;;
21634;SDS011;10979;48.306;9.830;2023-03-01T05:30:07;0.40;;;0.40;;
21634;SDS011;10979;48.306;9.830;2023-03-01T05:32:40;0.40;;;0.40;;
21634;SDS011;10979;48.306;9.830;2023-03-01T05:35:08;0.50;;;0.50;;
21634;SDS011;10979;48.306;9.830;2023-03-01T05:37:34;0.50;;;0.50;;
21634;SDS011;10979;48.306;9.830;2023-03-01T05:40:00;0.50;;;0.50;;
21634;SDS011;10979;48.306;9.830;2023-03-01T05:42:26;0.40;;;0.40;;
21634;SDS011;10979;48.306;9.830;2023-03-01T05:44:51;0.50;;;0.50;;
21634;SDS011;10979;48.306;9.830;2023-03-01T05:47:17;0.50;;;0.50;;
21634;SDS011;10979;48.306;9.830;2023-03-01T05:49:42;0.50;;;0.50;;
21634;SDS011;10979;48.306;9.830;2023-03-01T05:52:08;0.50;;;0.50;;
21634;SDS011;10979;48.306;9.830;2023-03-01T05:54:34;0.50;;;0.50;;
21634;SDS011;10979;48.306;9.830;2023-03-01T05:56:59;0.40;;;0.40;;
21634;SDS011;10979;48.306;9.830;2023-03-01T05:59:25;0.50;;;0.50;;
21634;SDS011;10979;48.306;9.830;2023-03-01T06:01:50;0.50;;;0.50;;
21634;SDS011;10979;48.306;9.830;2023-03-01T06:04:16;0.40;;;0.40;;
21634;SDS011;10979;48.306;9.830;2023-03-01T06:06:41;0.50;;;0.50;;
21634;SDS011;10979;48.306;9.830;2023-03-01T06:09:07;0.50;;;0.50;;
21634;SDS011;10979;48.306;9.830;2023-03-01T06:11:35;0.50;;;0.50;;
21634;SDS011;10979;48.306;9.830;2023-03-01T06:14:01;0.40;;;0.40;;
21634;SDS011;10979;48.306;9.830;2023-03-01T06:16:28;0.40;;;0.40;;
21634;SDS011;10979;48.306;9.830;2023-03-01T06:18:53;0.50;;;0.50;;
21634;SDS011;10979;48.306;9.830;2023-03-01T06:21:19;0.50;;;0.50;;
21634;SDS011;10979;48.306;9.830;2023-03-01T06:23:44;0.50;;;0.50;;
21634;SDS011;10979;48.306;9.830;2023-03-01T06:26:10;0.50;;;0.50;;
21634;SDS011;10979;48.306;9.830;2023-03-01T06:28:35;0.50;;;0.50;;
21634;SDS011;10979;48.306;9.830;2023-03-01T06:31:01;0.50;;;0.50;;
21634;SDS011;10979;48.306;9.830;2023-03-01T06:33:27;0.50;;;0.50;;
21634;SDS011;10979;48.306;9.830;2023-03-01T06:35:55;0.50;;;0.50;;
21634;SDS011;10979;48.306;9.830;2023-03-01T06:38:21;0.45;;;0.45;;
21634;SDS011;10979;48.306;9.830;2023-03-01T06:40:52;0.50;;;0.50;;
21634;SDS011;10979;48.306;9.830;2023-03-01T06:43:19;0.40;;;0.40;;
21634;SDS011;10979;48.306;9.830;2023-03-01T06:45:45;0.50;;;0.50;;
21634;SDS011;10979;48.306;9.830;2023-03-01T06:48:11;0.50;;;0.50;;
21634;SDS011;10979;48.306;9.830;2023-03-01T06:50:36;0.50;;;0.50;;
21634;SDS011;10979;48.306;9.830;2023-03-01T06:53:02;0.50;;;0.50;;
21634;SDS011;10979;48.306;9.830;2023-03-01T06:55:28;0.50;;;0.50;;
21634;SDS011;10979;48.306;9.830;2023-03-01T06:57:54;0.50;;;0.50;;
21634;SDS011;10979;48.306;9.830;2023-03-01T07:00:21;0.40;;;0.40;;
21634;SDS011;10979;48.306;9.830;2023-03-01T07:02:47;0.43;;;0.43;;
21634;SDS011;10979;48.306;9.830;2023-03-01T07:05:13;0.50;;;0.50;;
21634;SDS011;10979;48.306;9.830;2023-03-01T07:07:38;0.50;;;0.50;;
21634;SDS011;10979;48.306;9.830;2023-03-01T07:10:04;0.50;;;0.50;;
21634;SDS011;10979;48.306;9.830;2023-03-01T07:12:30;0.50;;;0.50;;
21634;SDS011;10979;48.306;9.830;2023-03-01T07:14:56;0.50;;;0.50;;
21634;SDS011;10979;48.306;9.830;2023-03-01T07:17:21;0.40;;;0.40;;
21634;SDS011;10979;48.306;9.830;2023-03-01T07:19:47;0.50;;;0.50;;
21634;SDS011;10979;48.306;9.830;2023-03-01T07:22:12;0.50;;;0.50;;
21634;SDS011;10979;48.306;9.830;2023-03-01T07:24:38;0.50;;;0.50;;
21634;SDS011;10979;48.306;9.830;2023-03-01T07:27:03;0.50;;;0.50;;
21634;SDS011;10979;48.306;9.830;2023-03-01T07:29:29;0.40;;;0.40;;
21634;SDS011;10979;48.306;9.830;2023-03-01T07:31:55;0.50;;;0.50;;
21634;SDS011;10979;48.306;9.830;2023-03-01T07:34:20;0.50;;;0.50;;
21634;SDS011;10979;48.306;9.830;2023-03-01T07:36:46;0.50;;;0.50;;
21634;SDS011;10979;48.306;9.830;2023-03-01T07:39:12;0.50;;;0.50;;
21634;SDS011;10979;48.306;9.830;2023-03-01T07:41:37;0.50;;;0.50;;
21634;SDS011;10979;48.306;9.830;2023-03-01T07:44:03;0.50;;;0.50;;
21634;SDS011;10979;48.306;9.830;2023-03-01T07:46:29;0.50;;;0.50;;
21634;SDS011;10979;48.306;9.830;2023-03-01T07:48:55;0.50;;;0.50;;
21634;SDS011;10979;48.306;9.830;2023-03-01T07:51:20;0.50;;;0.50;;
21634;SDS011;10979;48.306;9.830;2023-03-01T07:53:46;0.50;;;0.50;;
21634;SDS011;10979;48.306;9.830;2023-03-01T07:56:13;0.50;;;0.50;;
21634;SDS011;10979;48.306;9.830;2023-03-01T07:58:41;0.50;;;0.50;;
21634;SDS011;10979;48.306;9.830;2023-03-01T08:01:09;0.50;;;0.50;;
21634;SDS011;10979;48.306;9.830;2023-03-01T08:03:39;0.50;;;0.50;;
21634;SDS011;10979;48.306;9.830;2023-03-01T08:06:06;0.50;;;0.50;;
21634;SDS011;10979;48.306;9.830;2023-03-01T08:08:33;0.50;;;0.50;;
21634;SDS011;10979;48.306;9.830;2023-03-01T08:11:00;0.50;;;0.50;;
21634;SDS011;10979;48.306;9.830;2023-03-01T08:13:27;0.40;;;0.40;;
21634;SDS011;10979;48.306;9.830;2023-03-01T08:15:53;0.50;;;0.50;;
21634;SDS011;10979;48.306;9.830;2023-03-01T08:18:19;0.50;;;0.50;;
21634;SDS011;10979;48.306;9.830;2023-03-01T08:20:45;0.50;;;0.50;;
21634;SDS011;10979;48.306;9.830;2023-03-01T08:23:11;0.50;;;0.50;;
21634;SDS011;10979;48.306;9.830;2023-03-01T08:25:37;0.50;;;0.50;;
21634;SDS011;10979;48.306;9.830;2023-03-01T08:28:03;0.50;;;0.50;;
21634;SDS011;10979;48.306;9.830;2023-03-01T08:30:29;0.43;;;0.43;;
21634;SDS011;10979;48.306;9.830;2023-03-01T08:32:55;0.50;;;0.50;;
21634;SDS011;10979;48.306;9.830;2023-03-01T08:35:20;0.40;;;0.40;;
21634;SDS011;10979;48.306;9.830;2023-03-01T08:37:46;0.40;;;0.40;;
21634;SDS011;10979;48.306;9.830;2023-03-01T08:40:13;0.50;;;0.50;;
21634;SDS011;10979;48.306;9.830;2023-03-01T08:42:39;0.43;;;0.43;;
21634;SDS011;10979;48.306;9.830;2023-03-01T08:45:05;0.40;;;0.40;;
21634;SDS011;10979;48.306;9.830;2023-03-01T08:47:32;0.40;;;0.40;;
21634;SDS011;10979;48.306;9.830;2023-03-01T08:49:58;0.50;;;0.50;;
21634;SDS011;10979;48.306;9.830;2023-03-01T08:52:27;0.50;;;0.50;;
21634;SDS011;10979;48.306;9.830;2023-03-01T08:54:55;0.40;;;0.40;;
21634;SDS011;10979;48.306;9.830;2023-03-01T08:57:21;0.50;;;0.50;;
21634;SDS011;10979;48.306;9.830;2023-03-01T08:59:46;0.50;;;0.50;;
21634;SDS011;10979;48.306;9.830;2023-03-01T09:02:13;0.40;;;0.40;;
21634;SDS011;10979;48.306;9.830;2023-03-01T09:04:40;0.40;;;0.40;;
21634;SDS011;10979;48.306;9.830;2023-03-01T09:07:06;0.40;;;0.40;;
21634;SDS011;10979;48.306;9.830;2023-03-01T09:09:32;0.40;;;0.40;;
21634;SDS011;10979;48.306;9.830;2023-03-01T09:11:58;0.40;;;0.40;;
21634;SDS011;10979;48.306;9.830;2023-03-01T09:14:24;0.40;;;0.40;;
21634;SDS011;10979;48.306;9.830;2023-03-01T09:16:50;0.40;;;0.40;;
21634;SDS011;10979;48.306;9.830;2023-03-01T09:19:16;0.40;;;0.40;;
21634;SDS011;10979;48.306;9.830;2023-03-01T09:21:42;0.50;;;0.50;;
21634;SDS011;10979;48.306;9.830;2023-03-01T09:24:17;0.40;;;0.40;;
21634;SDS011;10979;48.306;9.830;2023-03-01T09:26:44;0.40;;;0.40;;
21634;SDS011;10979;48.306;9.830;2023-03-01T09:29:13;0.40;;;0.40;;
21634;SDS011;10979;48.306;9.830;2023-03-01T09:31:40;0.40;;;0.40;;
21634;SDS011;10979;48.306;9.830;2023-03-01T09:34:06;0.50;;;0.50;;
21634;SDS011;10979;48.306;9.830;2023-03-01T09:36:32;0.40;;;0.40;;
21634;SDS011;10979;48.306;9.830;2023-03-01T09:38:58;0.40;;;0.40;;
21634;SDS011;10979;48.306;9.830;2023-03-01T09:46:43;0.50;;;0.50;;
21634;SDS011;10979;48.306;9.830;2023-03-01T09:49:23;0.50;;;0.50;;
21634;SDS011;10979;48.306;9.830;2023-03-01T09:52:00;0.50;;;0.50;;
21634;SDS011;10979;48.306;9.830;2023-03-01T09:54:37;0.50;;;0.50;;
21634;SDS011;10979;48.306;9.830;2023-03-01T09:59:49;0.40;;;0.40;;
21634;SDS011;10979;48.306;9.830;2023-03-01T10:04:52;0.43;;;0.43;;
21634;SDS011;10979;48.306;9.830;2023-03-01T10:07:27;0.40;;;0.40;;
21634;SDS011;10979;48.306;9.830;2023-03-01T10:10:16;0.40;;;0.40;;
21634;SDS011;10979;48.306;9.830;2023-03-01T10:16:19;0.50;;;0.50;;
21634;SDS011;10979;48.306;9.830;2023-03-01T10:18:55;0.50;;;0.50;;
21634;SDS011;10979;48.306;9.830;2023-03-01T10:21:25;0.40;;;0.40;;
21634;SDS011;10979;48.306;9.830;2023-03-01T10:23:52;0.40;;;0.40;;
21634;SDS011;10979;48.306;9.830;2023-03-01T10:26:36;0.40;;;0.40;;
21634;SDS011;10979;48.306;9.830;2023-03-01T10:29:09;0.40;;;0.40;;
21634;SDS011;10979;48.306;9.830;2023-03-01T10:31:41;0.40;;;0.40;;
21634;SDS011;10979;48.306;9.830;2023-03-01T10:34:09;0.40;;;0.40;;
21634;SDS011;10979;48.306;9.830;2023-03-01T10:36:58;0.40;;;0.40;;
21634;SDS011;10979;48.306;9.830;2023-03-01T10:39:33;0.40;;;0.40;;
21634;SDS011;10979;48.306;9.830;2023-03-01T10:41:59;0.40;;;0.40;;
21634;SDS011;10979;48.306;9.830;2023-03-01T10:47:08;0.40;;;0.40;;
21634;SDS011;10979;48.306;9.830;2023-03-01T10:49:45;0.40;;;0.40;;
21634;SDS011;10979;48.306;9.830;2023-03-01T10:52:35;0.40;;;0.40;;
21634;SDS011;10979;48.306;9.830;2023-03-01T10:57:46;0.40;;;0.40;;
21634;SDS011;10979;48.306;9.830;2023-03-01T11:02:46;0.40;;;0.40;;
21634;SDS011;10979;48.306;9.830;2023-03-01T11:07:50;0.40;;;0.40;;
21634;SDS011;10979;48.306;9.830;2023-03-01T11:12:50;0.40;;;0.40;;
21634;SDS011;10979;48.306;9.830;2023-03-01T11:15:20;0.40;;;0.40;;
21634;SDS011;10979;48.306;9.830;2023-03-01T11:17:51;0.40;;;0.40;;
21634;SDS011;10979;48.306;9.830;2023-03-01T11:20:25;0.40;;;0.40;;
21634;SDS011;10979;48.306;9.830;2023-03-01T11:23:30;0.40;;;0.40;;
21634;SDS011;10979;48.306;9.830;2023-03-01T11:25:57;0.40;;;0.40;;
21634;SDS011;10979;48.306;9.830;2023-03-01T11:28:41;0.40;;;0.40;;
21634;SDS011;10979;48.306;9.830;2023-03-01T11:31:10;0.40;;;0.40;;
21634;SDS011;10979;48.306;9.830;2023-03-01T11:39:02;0.30;;;0.30;;
21634;SDS011;10979;48.306;9.830;2023-03-01T11:41:37;0.40;;;0.40;;
21634;SDS011;10979;48.306;9.830;2023-03-01T11:44:11;0.40;;;0.40;;
21634;SDS011;10979;48.306;9.830;2023-03-01T11:49:54;0.40;;;0.40;;
21634;SDS011;10979;48.306;9.830;2023-03-01T11:52:36;0.40;;;0.40;;
21634;SDS011;10979;48.306;9.830;2023-03-01T11:55:17;0.40;;;0.40;;
21634;SDS011;10979;48.306;9.830;2023-03-01T12:17:06;0.40;;;0.40;;
21634;SDS011;10979;48.306;9.830;2023-03-01T12:22:28;0.40;;;0.40;;
21634;SDS011;10979;48.306;9.830;2023-03-01T12:25:08;0.40;;;0.40;;
21634;SDS011;10979;48.306;9.830;2023-03-01T12:33:22;0.30;;;0.30;;
21634;SDS011;10979;48.306;9.830;2023-03-01T12:49:55;0.30;;;0.30;;
21634;SDS011;10979;48.306;9.830;2023-03-01T12:58:37;0.40;;;0.40;;
21634;SDS011;10979;48.306;9.830;2023-03-01T13:03:32;0.38;;;0.38;;
21634;SDS011;10979;48.306;9.830;2023-03-01T13:06:20;0.30;;;0.30;;
21634;SDS011;10979;48.306;9.830;2023-03-01T13:09:02;0.30;;;0.30;;
21634;SDS011;10979;48.306;9.830;2023-03-01T13:11:34;0.40;;;0.40;;
21634;SDS011;10979;48.306;9.830;2023-03-01T13:14:34;0.30;;;0.30;;
21634;SDS011;10979;48.306;9.830;2023-03-01T13:16:49;0.40;;;0.40;;
21634;SDS011;10979;48.306;9.830;2023-03-01T13:19:22;0.40;;;0.40;;
21634;SDS011;10979;48.306;9.830;2023-03-01T13:21:50;0.30;;;0.30;;
21634;SDS011;10979;48.306;9.830;2023-03-01T13:29:45;0.30;;;0.30;;
21634;SDS011;10979;48.306;9.830;2023-03-01T13:32:18;0.40;;;0.40;;
21634;SDS011;10979;48.306;9.830;2023-03-01T13:34:45;0.30;;;0.30;;
21634;SDS011;10979;48.306;9.830;2023-03-01T13:37:29;0.30;;;0.30;;
21634;SDS011;10979;48.306;9.830;2023-03-01T13:39:57;0.30;;;0.30;;
21634;SDS011;10979;48.306;9.830;2023-03-01T13:42:33;0.40;;;0.40;;
21634;SDS011;10979;48.306;9.830;2023-03-01T13:45:20;0.30;;;0.30;;
21634;SDS011;10979;48.306;9.830;2023-03-01T13:47:58;0.30;;;0.30;;
21634;SDS011;10979;48.306;9.830;2023-03-01T13:50:35;0.40;;;0.40;;
21634;SDS011;10979;48.306;9.830;2023-03-01T13:53:09;0.30;;;0.30;;
21634;SDS011;10979;48.306;9.830;2023-03-01T13:55:42;0.40;;;0.40;;
21634;SDS011;10979;48.306;9.830;2023-03-01T13:58:24;0.40;;;0.40;;
21634;SDS011;10979;48.306;9.830;2023-03-01T14:00:59;0.30;;;0.30;;
21634;SDS011;10979;48.306;9.830;2023-03-01T14:03:27;0.30;;;0.30;;
21634;SDS011;10979;48.306;9.830;2023-03-01T14:08:36;0.30;;;0.30;;
21634;SDS011;10979;48.306;9.830;2023-03-01T14:21:38;0.30;;;0.30;;
21634;SDS011;10979;48.306;9.830;2023-03-01T14:24:04;0.30;;;0.30;;
21634;SDS011;10979;48.306;9.830;2023-03-01T14:26:30;0.30;;;0.30;;
21634;SDS011;10979;48.306;9.830;2023-03-01T14:29:00;0.30;;;0.30;;
21634;SDS011;10979;48.306;9.830;2023-03-01T14:31:31;0.30;;;0.30;;
21634;SDS011;10979;48.306;9.830;2023-03-01T14:34:00;0.30;;;0.30;;
21634;SDS011;10979;48.306;9.830;2023-03-01T14:36:27;0.30;;;0.30;;
21634;SDS011;10979;48.306;9.830;2023-03-01T14:38:54;0.30;;;0.30;;
21634;SDS011;10979;48.306;9.830;2023-03-01T14:41:21;0.40;;;0.40;;
21634;SDS011;10979;48.306;9.830;2023-03-01T14:44:07;0.40;;;0.40;;
21634;SDS011;10979;48.306;9.830;2023-03-01T14:46:41;0.30;;;0.30;;
21634;SDS011;10979;48.306;9.830;2023-03-01T14:49:15;0.30;;;0.30;;
21634;SDS011;10979;48.306;9.830;2023-03-01T14:51:55;0.30;;;0.30;;
21634;SDS011;10979;48.306;9.830;2023-03-01T14:54:39;0.30;;;0.30;;
21634;SDS011;10979;48.306;9.830;2023-03-01T14:57:15;0.30;;;0.30;;
21634;SDS011;10979;48.306;9.830;2023-03-01T14:59:43;0.35;;;0.35;;
21634;SDS011;10979;48.306;9.830;2023-03-01T15:02:13;0.30;;;0.30;;
21634;SDS011;10979;48.306;9.830;2023-03-01T15:04:43;0.30;;;0.30;;
21634;SDS011;10979;48.306;9.830;2023-03-01T15:07:12;0.30;;;0.30;;
21634;SDS011;10979;48.306;9.830;2023-03-01T15:09:39;0.30;;;0.30;;
21634;SDS011;10979;48.306;9.830;2023-03-01T15:14:52;0.30;;;0.30;;
21634;SDS011;10979;48.306;9.830;2023-03-01T15:17:26;0.30;;;0.30;;
21634;SDS011;10979;48.306;9.830;2023-03-01T15:19:53;0.30;;;0.30;;
21634;SDS011;10979;48.306;9.830;2023-03-01T15:22:19;0.30;;;0.30;;
21634;SDS011;10979;48.306;9.830;2023-03-01T15:24:49;0.30;;;0.30;;
21634;SDS011;10979;48.306;9.830;2023-03-01T15:27:19;0.30;;;0.30;;
21634;SDS011;10979;48.306;9.830;2023-03-01T15:34:57;0.30;;;0.30;;
21634;SDS011;10979;48.306;9.830;2023-03-01T15:42:56;0.30;;;0.30;;
21634;SDS011;10979;48.306;9.830;2023-03-01T15:45:24;0.30;;;0.30;;
21634;SDS011;10979;48.306;9.830;2023-03-01T15:47:53;0.30;;;0.30;;
21634;SDS011;10979;48.306;9.830;2023-03-01T15:50:35;0.30;;;0.30;;
21634;SDS011;10979;48.306;9.830;2023-03-01T15:53:05;0.30;;;0.30;;
21634;SDS011;10979;48.306;9.830;2023-03-01T15:58:03;0.30;;;0.30;;
21634;SDS011;10979;48.306;9.830;2023-03-01T16:00:30;0.30;;;0.30;;
21634;SDS011;10979;48.306;9.830;2023-03-01T16:02:55;0.30;;;0.30;;
21634;SDS011;10979;48.306;9.830;2023-03-01T16:05:22;0.40;;;0.40;;
21634;SDS011;10979;48.306;9.830;2023-03-01T16:07:50;0.30;;;0.30;;
21634;SDS011;10979;48.306;9.830;2023-03-01T16:10:17;0.40;;;0.40;;
21634;SDS011;10979;48.306;9.830;2023-03-01T16:12:43;0.30;;;0.30;;
21634;SDS011;10979;48.306;9.830;2023-03-01T16:15:31;0.40;;;0.40;;
21634;SDS011;10979;48.306;9.830;2023-03-01T16:17:57;0.30;;;0.30;;
21634;SDS011;10979;48.306;9.830;2023-03-01T16:20:23;0.40;;;0.40;;
21634;SDS011;10979;48.306;9.830;2023-03-01T16:22:50;0.30;;;0.30;;
21634;SDS011;10979;48.306;9.830;2023-03-01T16:25:16;0.30;;;0.30;;
21634;SDS011;10979;48.306;9.830;2023-03-01T16:27:44;0.30;;;0.30;;
21634;SDS011;10979;48.306;9.830;2023-03-01T16:30:11;0.40;;;0.40;;
21634;SDS011;10979;48.306;9.830;2023-03-01T16:32:38;0.30;;;0.30;;
21634;SDS011;10979;48.306;9.830;2023-03-01T16:35:05;0.30;;;0.30;;
21634;SDS011;10979;48.306;9.830;2023-03-01T16:37:32;0.40;;;0.40;;
21634;SDS011;10979;48.306;9.830;2023-03-01T16:39:59;0.30;;;0.30;;
21634;SDS011;10979;48.306;9.830;2023-03-01T16:42:25;0.30;;;0.30;;
21634;SDS011;10979;48.306;9.830;2023-03-01T16:44:54;0.30;;;0.30;;
21634;SDS011;10979;48.306;9.830;2023-03-01T16:47:20;0.30;;;0.30;;
21634;SDS011;10979;48.306;9.830;2023-03-01T16:49:46;0.30;;;0.30;;
21634;SDS011;10979;48.306;9.830;2023-03-01T16:52:12;0.30;;;0.30;;
21634;SDS011;10979;48.306;9.830;2023-03-01T16:54:37;0.30;;;0.30;;
21634;SDS011;10979;48.306;9.830;2023-03-01T16:57:03;0.40;;;0.40;;
21634;SDS011;10979;48.306;9.830;2023-03-01T16:59:29;0.30;;;0.30;;
21634;SDS011;10979;48.306;9.830;2023-03-01T17:01:55;0.30;;;0.30;;
21634;SDS011;10979;48.306;9.830;2023-03-01T17:04:20;0.30;;;0.30;;
21634;SDS011;10979;48.306;9.830;2023-03-01T17:06:46;0.40;;;0.40;;
21634;SDS011;10979;48.306;9.830;2023-03-01T17:09:13;0.40;;;0.40;;
21634;SDS011;10979;48.306;9.830;2023-03-01T17:11:39;0.30;;;0.30;;
21634;SDS011;10979;48.306;9.830;2023-03-01T17:14:05;0.40;;;0.40;;
21634;SDS011;10979;48.306;9.830;2023-03-01T17:16:31;0.30;;;0.30;;